Time;durP1;ratioP1;P1;durP2;ratioP2;P2;SDS_P1;SDS_P2;PMS_P1;PMS_P2;Temp;Humidity;BMP_temperature;BMP_pressure;BME280_temperature;BME280_humidity;BME280_pressure;Samples;Min_cycle;Max_cycle;Signal;HPM_P1;HPM_P2
2021/11/17 02:28:02;;;;;;;0.40;0.40;;;4.90;99.90;;;;;;5129327;28;20047;-79
2021/11/17 02:30:40;;;;;;;0.10;0.10;;;4.90;99.90;;;;;;5113370;28;20048;-82
2021/11/17 02:33:15;;;;;;;0.10;0.10;;;4.90;99.90;;;;;;5128153;28;20047;-79
2021/11/17 02:35:54;;;;;;;0.10;0.10;;;5.00;99.90;;;;;;5109476;28;20503;-83
2021/11/17 02:38:39;;;;;;;0.10;0.10;;;4.90;99.90;;;;;;5115050;28;20522;-81
2021/11/17 02:41:15;;;;;;;3.20;0.55;;;4.90;99.90;;;;;;5148934;28;20189;-83
2021/11/17 02:44:04;;;;;;;0.10;0.10;;;4.90;99.90;;;;;;5115502;28;20041;-80
2021/11/17 02:46:52;;;;;;;0.10;0.10;;;4.90;99.90;;;;;;5148817;28;20039;-80
2021/11/17 02:49:39;;;;;;;0.10;0.10;;;4.90;99.90;;;;;;5132437;28;20480;-80
2021/11/17 02:52:24;;;;;;;0.10;0.10;;;5.00;99.90;;;;;;5142376;28;20040;-82
2021/11/17 02:55:24;;;;;;;0.10;0.10;;;5.00;99.90;;;;;;5114943;28;20083;-83
2021/11/17 02:58:15;;;;;;;0.10;0.10;;;5.00;99.90;;;;;;5116048;28;20039;-82
2021/11/17 03:01:13;;;;;;;0.10;0.10;;;5.00;99.90;;;;;;5148612;28;20050;-82
2021/11/17 03:04:13;;;;;;;0.20;0.20;;;5.00;99.90;;;;;;5132575;28;20051;-80
2021/11/17 03:06:58;;;;;;;0.10;0.10;;;5.00;99.90;;;;;;5148573;28;20043;-82
2021/11/17 03:09:34;;;;;;;0.10;0.10;;;5.00;99.90;;;;;;5147953;28;20036;-82
2021/11/17 03:12:08;;;;;;;;;;;5.00;99.90;;;;;;5150277;28;20459;-78
2021/11/17 03:14:47;;;;;;;0.10;0.10;;;5.00;99.90;;;;;;5114561;28;19920;-81
2021/11/17 03:17:47;;;;;;;0.10;0.10;;;5.10;99.90;;;;;;5147691;28;20042;-79
2021/11/17 03:20:23;;;;;;;0.10;0.10;;;5.10;99.90;;;;;;5129981;28;20043;-79
2021/11/17 03:23:13;;;;;;;1.42;0.32;;;5.10;99.90;;;;;;5131210;28;20534;-81
2021/11/17 03:25:58;;;;;;;0.10;0.10;;;5.10;99.90;;;;;;5131541;28;20100;-79
2021/11/17 03:28:49;;;;;;;0.10;0.10;;;5.10;99.90;;;;;;5132571;28;20043;-81
2021/11/17 03:31:43;;;;;;;0.10;0.10;;;5.10;99.90;;;;;;5147632;28;20104;-79
2021/11/17 03:34:39;;;;;;;0.10;0.10;;;5.10;99.90;;;;;;5132186;28;20051;-81
2021/11/17 03:37:50;;;;;;;0.10;0.10;;;5.20;99.90;;;;;;5116977;28;20639;-79
2021/11/17 03:41:01;;;;;;;0.10;0.10;;;5.20;99.90;;;;;;5113665;28;20119;-79
2021/11/17 03:43:50;;;;;;;0.10;0.10;;;5.20;99.90;;;;;;5115770;28;20161;-82
2021/11/17 03:46:40;;;;;;;2.10;0.63;;;5.20;99.90;;;;;;5115573;28;20126;-81
2021/11/17 03:49:31;;;;;;;0.10;0.10;;;5.20;99.90;;;;;;5141667;28;20559;-79
2021/11/17 03:52:35;;;;;;;0.20;0.20;;;5.30;99.90;;;;;;5114812;28;20539;-81
2021/11/17 03:55:17;;;;;;;0.10;0.10;;;5.30;99.90;;;;;;5115054;28;20040;-81
2021/11/17 03:57:56;;;;;;;0.10;0.10;;;5.30;99.90;;;;;;5131968;28;20085;-79
2021/11/17 04:00:34;;;;;;;0.10;0.10;;;5.30;99.90;;;;;;5114457;28;20053;-81
2021/11/17 04:03:28;;;;;;;0.10;0.10;;;5.30;99.90;;;;;;5130121;28;20131;-78
2021/11/17 04:06:13;;;;;;;0.10;0.10;;;5.70;99.90;;;;;;5115060;28;20048;-79
2021/11/17 04:08:46;;;;;;;0.10;0.10;;;5.30;99.90;;;;;;5147186;28;20543;-80
2021/11/17 04:11:22;;;;;;;0.10;0.10;;;5.30;99.90;;;;;;5130198;28;20050;-79
2021/11/17 04:13:57;;;;;;;0.10;0.10;;;5.30;99.90;;;;;;5113453;28;20571;-81
2021/11/17 04:16:43;;;;;;;0.10;0.10;;;5.40;99.90;;;;;;5130263;28;20047;-81
2021/11/17 04:19:28;;;;;;;0.10;0.10;;;5.30;99.90;;;;;;5148332;28;20130;-81
2021/11/17 04:22:20;;;;;;;0.10;0.10;;;5.40;99.90;;;;;;5147689;28;20047;-79
2021/11/17 04:25:18;;;;;;;0.10;0.10;;;5.40;99.90;;;;;;5129864;28;20044;-81
2021/11/17 04:28:14;;;;;;;0.10;0.10;;;5.40;99.90;;;;;;5130642;28;20039;-78
2021/11/17 04:31:05;;;;;;;0.20;0.20;;;5.40;99.90;;;;;;5130279;28;20058;-81
2021/11/17 04:33:45;;;;;;;0.10;0.10;;;5.40;99.90;;;;;;5151359;28;20035;-78
2021/11/17 04:36:30;;;;;;;0.10;0.10;;;5.40;99.90;;;;;;5117596;28;20039;-80
2021/11/17 04:39:28;;;;;;;0.10;0.10;;;5.40;99.90;;;;;;5134782;28;20523;-81
2021/11/17 04:42:00;;;;;;;0.10;0.10;;;5.40;99.90;;;;;;5118952;28;20476;-81
2021/11/17 04:45:00;;;;;;;0.10;0.10;;;5.40;99.90;;;;;;5133845;28;20042;-79
2021/11/17 04:47:42;;;;;;;0.10;0.10;;;5.50;99.90;;;;;;5135265;28;20043;-81
2021/11/17 04:50:24;;;;;;;0.10;0.10;;;5.50;99.90;;;;;;5117246;28;20044;-79
2021/11/17 04:53:09;;;;;;;0.10;0.10;;;5.50;99.90;;;;;;5134640;28;20047;-79
2021/11/17 04:56:14;;;;;;;0.10;0.10;;;5.50;99.90;;;;;;5118270;28;20079;-81
2021/11/17 04:58:59;;;;;;;0.10;0.10;;;5.50;99.90;;;;;;5111103;28;20044;-81
2021/11/17 05:02:10;;;;;;;0.10;0.10;;;5.50;99.90;;;;;;5133489;28;20043;-79
2021/11/17 05:05:04;;;;;;;0.30;0.30;;;5.60;99.90;;;;;;5129517;28;20047;-81
2021/11/17 05:07:57;;;;;;;0.10;0.10;;;5.60;99.90;;;;;;5100277;28;20047;-79
2021/11/17 05:10:48;;;;;;;0.10;0.10;;;5.60;99.90;;;;;;5113352;28;20091;-79
2021/11/17 05:13:15;;;;;;;6.50;0.45;;;5.60;99.90;;;;;;5119788;28;20111;-81
2021/11/17 05:15:57;;;;;;;0.10;0.10;;;5.60;99.90;;;;;;5114005;28;20131;-79
2021/11/17 05:18:43;;;;;;;0.10;0.10;;;5.60;99.90;;;;;;5113498;28;20051;-80
2021/11/17 05:21:10;;;;;;;0.22;0.22;;;5.70;99.90;;;;;;5135448;28;20055;-82
2021/11/17 05:24:03;;;;;;;0.10;0.10;;;5.60;99.90;;;;;;5129310;28;20058;-79
2021/11/17 05:26:41;;;;;;;0.10;0.10;;;5.60;99.90;;;;;;5122053;28;20051;-81
2021/11/17 05:29:17;;;;;;;0.10;0.10;;;5.60;99.90;;;;;;5113870;28;20040;-81
2021/11/17 05:32:22;;;;;;;0.10;0.10;;;5.60;99.90;;;;;;5112477;28;20044;-81
2021/11/17 05:34:52;;;;;;;0.10;0.10;;;5.60;99.90;;;;;;5130357;28;20087;-79
2021/11/17 05:37:36;;;;;;;0.10;0.10;;;5.60;99.90;;;;;;5112499;28;20496;-78
2021/11/17 05:40:51;;;;;;;0.10;0.10;;;5.70;99.90;;;;;;5095775;28;20054;-79
2021/11/17 05:43:30;;;;;;;0.15;0.15;;;5.70;99.90;;;;;;5113300;28;20086;-79
2021/11/17 05:46:21;;;;;;;0.10;0.10;;;5.70;99.90;;;;;;5112602;28;20048;-79
2021/11/17 05:49:00;;;;;;;0.20;0.20;;;5.70;99.90;;;;;;5128766;28;20546;-81
2021/11/17 05:51:42;;;;;;;0.10;0.10;;;5.70;99.90;;;;;;5096745;28;20488;-81
2021/11/17 05:54:39;;;;;;;0.10;0.10;;;5.70;99.90;;;;;;5113515;28;20494;-79
2021/11/17 05:57:27;;;;;;;0.10;0.10;;;5.70;99.90;;;;;;5096627;28;20043;-79
2021/11/17 06:00:11;;;;;;;0.10;0.10;;;5.70;99.90;;;;;;5130135;28;20518;-81
2021/11/17 06:02:56;;;;;;;0.10;0.10;;;5.80;99.90;;;;;;5112672;28;20044;-79
2021/11/17 06:05:22;;;;;;;0.10;0.10;;;5.70;99.90;;;;;;5112896;28;20109;-78
2021/11/17 06:07:49;;;;;;;0.10;0.10;;;5.80;99.90;;;;;;5113076;28;20043;-81
2021/11/17 06:10:20;;;;;;;0.10;0.10;;;5.80;99.90;;;;;;5111819;28;20476;-79
2021/11/17 06:12:48;;;;;;;0.20;0.20;;;5.80;99.90;;;;;;5128485;28;20097;-81
2021/11/17 06:15:16;;;;;;;1.75;0.30;;;5.80;99.90;;;;;;5112842;28;20040;-79
2021/11/17 06:17:49;;;;;;;0.55;0.50;;;5.80;99.90;;;;;;5112913;28;20040;-78
2021/11/17 06:20:19;;;;;;;0.10;0.10;;;5.80;99.90;;;;;;5129546;28;20127;-78
2021/11/17 06:22:49;;;;;;;0.10;0.10;;;5.80;99.90;;;;;;5111970;28;20032;-82
2021/11/17 06:25:17;;;;;;;0.13;0.13;;;6.00;99.90;;;;;;5111553;28;20040;-79
2021/11/17 06:27:48;;;;;;;0.10;0.10;;;5.90;99.90;;;;;;5096829;28;20090;-82
2021/11/17 06:30:18;;;;;;;0.55;0.55;;;5.90;99.90;;;;;;5128771;28;20032;-82
2021/11/17 06:32:46;;;;;;;0.40;0.40;;;5.90;99.90;;;;;;5111041;28;20119;-82
2021/11/17 06:35:14;;;;;;;0.10;0.10;;;5.90;99.90;;;;;;5128385;28;20066;-82
2021/11/17 06:37:41;;;;;;;0.10;0.10;;;5.90;99.90;;;;;;5110902;28;20051;-82
2021/11/17 06:40:13;;;;;;;0.10;0.10;;;6.00;99.90;;;;;;5094578;28;20040;-79
2021/11/17 06:43:00;;;;;;;0.55;0.55;;;6.00;99.90;;;;;;5110496;28;20419;-81
2021/11/17 06:45:39;;;;;;;0.55;0.55;;;6.00;99.90;;;;;;5127859;28;20215;-79
2021/11/17 06:48:08;;;;;;;0.10;0.10;;;6.00;99.90;;;;;;5130468;28;20071;-81
2021/11/17 06:50:37;;;;;;;0.10;0.10;;;6.00;99.90;;;;;;5127388;28;20036;-79
2021/11/17 06:53:05;;;;;;;0.20;0.20;;;6.10;99.90;;;;;;5111138;28;20093;-81
2021/11/17 06:55:32;;;;;;;0.10;0.10;;;6.10;99.90;;;;;;5093407;28;20569;-80
2021/11/17 06:57:59;;;;;;;0.10;0.10;;;6.10;99.90;;;;;;5093974;28;20043;-79
2021/11/17 07:00:29;;;;;;;0.10;0.10;;;6.00;99.90;;;;;;5110548;28;20047;-79
2021/11/17 07:02:56;;;;;;;0.10;0.10;;;6.30;99.90;;;;;;5110366;28;20120;-81
2021/11/17 07:05:22;;;;;;;0.10;0.10;;;6.20;99.90;;;;;;5110476;28;20496;-79
2021/11/17 07:07:54;;;;;;;0.10;0.10;;;6.10;99.90;;;;;;5076472;28;20032;-81
2021/11/17 07:10:24;;;;;;;0.10;0.10;;;6.10;99.90;;;;;;5127356;28;20407;-79
2021/11/17 07:12:52;;;;;;;0.10;0.10;;;6.20;99.90;;;;;;5109473;28;20173;-82
2021/11/17 07:15:20;;;;;;;0.10;0.10;;;6.10;99.90;;;;;;5135074;28;20404;-79
2021/11/17 07:17:47;;;;;;;0.10;0.10;;;6.20;99.90;;;;;;5097282;28;20036;-79
2021/11/17 07:20:15;;;;;;;0.10;0.10;;;6.20;99.90;;;;;;5121446;28;20042;-79
2021/11/17 07:22:43;;;;;;;0.20;0.20;;;6.20;99.90;;;;;;5112937;28;20039;-81
2021/11/17 07:25:14;;;;;;;0.10;0.10;;;6.30;99.90;;;;;;5138398;28;20079;-79
2021/11/17 07:27:42;;;;;;;0.10;0.10;;;6.30;99.90;;;;;;5143953;28;20067;-79
2021/11/17 07:30:11;;;;;;;0.10;0.10;;;6.30;99.90;;;;;;5118945;28;20036;-79
2021/11/17 07:32:38;;;;;;;0.30;0.22;;;6.30;99.90;;;;;;5146564;28;20421;-80
2021/11/17 07:35:06;;;;;;;0.13;0.13;;;6.30;99.90;;;;;;5147285;28;20042;-79
2021/11/17 07:37:33;;;;;;;0.10;0.10;;;6.30;99.90;;;;;;5130343;28;20056;-79
2021/11/17 07:40:00;;;;;;;0.10;0.10;;;6.40;99.90;;;;;;5096073;28;20409;-81
2021/11/17 07:42:26;;;;;;;0.10;0.10;;;6.30;99.90;;;;;;5130103;28;20036;-79
2021/11/17 07:44:53;;;;;;;0.00;0.00;;;6.30;99.90;;;;;;5137756;28;20097;-81
2021/11/17 07:47:20;;;;;;;0.10;0.10;;;6.40;99.90;;;;;;5118993;28;20059;-79
2021/11/17 07:49:47;;;;;;;0.10;0.10;;;6.40;99.90;;;;;;5110134;28;20488;-81
2021/11/17 07:52:14;;;;;;;0.10;0.10;;;6.40;99.90;;;;;;5121641;28;20474;-81
2021/11/17 07:54:40;;;;;;;4.53;0.70;;;6.70;99.90;;;;;;5083011;28;20086;-79
2021/11/17 07:57:08;;;;;;;0.10;0.10;;;6.50;99.90;;;;;;5098399;28;20052;-79
2021/11/17 07:59:36;;;;;;;0.22;0.22;;;6.50;99.90;;;;;;5115425;28;20036;-79
2021/11/17 08:02:11;;;;;;;0.10;0.10;;;6.50;99.90;;;;;;5094823;28;20483;-79
2021/11/17 08:04:39;;;;;;;0.10;0.10;;;6.80;99.90;;;;;;5144952;28;20111;-81
2021/11/17 08:07:11;;;;;;;0.10;0.10;;;6.60;99.90;;;;;;5112196;28;20495;-81
2021/11/17 08:09:38;;;;;;;0.10;0.10;;;6.60;99.90;;;;;;5144042;28;20035;-79
2021/11/17 08:12:06;;;;;;;0.43;0.43;;;6.60;99.90;;;;;;5112881;28;20385;-79
2021/11/17 08:14:33;;;;;;;0.10;0.10;;;6.60;99.90;;;;;;5109404;28;20039;-82
2021/11/17 08:17:00;;;;;;;0.10;0.10;;;6.70;99.90;;;;;;5092859;28;20161;-81
2021/11/17 08:19:27;;;;;;;0.10;0.10;;;6.80;99.90;;;;;;5092701;28;20055;-82
2021/11/17 08:21:55;;;;;;;0.10;0.10;;;6.70;99.90;;;;;;5125890;28;20043;-82
2021/11/17 08:24:21;;;;;;;0.10;0.10;;;6.70;99.90;;;;;;5089237;28;20040;-79
2021/11/17 08:26:48;;;;;;;0.10;0.10;;;6.70;99.90;;;;;;5095503;28;20047;-82
2021/11/17 08:29:15;;;;;;;0.10;0.10;;;6.70;99.90;;;;;;5129847;28;20092;-81
2021/11/17 08:31:41;;;;;;;0.10;0.10;;;6.70;99.90;;;;;;5146859;28;20405;-78
2021/11/17 08:34:08;;;;;;;0.10;0.10;;;6.80;99.90;;;;;;5112396;28;20039;-81
2021/11/17 08:36:35;;;;;;;0.10;0.10;;;6.80;99.90;;;;;;5146264;28;20501;-82
2021/11/17 08:39:03;;;;;;;0.10;0.10;;;6.80;99.90;;;;;;5115350;28;20040;-81
2021/11/17 08:41:30;;;;;;;0.10;0.10;;;6.90;99.90;;;;;;5128620;28;20106;-79
2021/11/17 08:43:57;;;;;;;0.05;0.05;;;6.90;99.90;;;;;;5144806;28;20079;-82
2021/11/17 08:46:24;;;;;;;0.10;0.10;;;6.90;99.90;;;;;;5129637;28;20074;-79
2021/11/17 08:48:52;;;;;;;0.30;0.30;;;6.90;99.90;;;;;;5111909;28;20035;-81
2021/11/17 08:51:20;;;;;;;0.20;0.20;;;7.00;99.90;;;;;;5109047;28;20047;-81
2021/11/17 08:53:48;;;;;;;0.10;0.10;;;7.00;99.90;;;;;;5093834;28;20043;-81
2021/11/17 08:56:16;;;;;;;0.00;0.00;;;7.10;99.90;;;;;;5126616;28;20032;-83
2021/11/17 08:58:44;;;;;;;0.10;0.10;;;7.10;99.90;;;;;;5145317;28;20381;-80
2021/11/17 09:01:11;;;;;;;0.10;0.10;;;7.10;99.90;;;;;;5110246;28;20036;-79
2021/11/17 09:03:38;;;;;;;0.10;0.10;;;7.10;99.90;;;;;;5112390;28;20051;-80
2021/11/17 09:06:07;;;;;;;0.10;0.10;;;7.20;99.90;;;;;;5146340;28;20044;-82
2021/11/17 09:08:35;;;;;;;0.10;0.10;;;7.20;99.90;;;;;;5113025;28;20040;-79
2021/11/17 09:11:06;;;;;;;0.15;0.15;;;7.30;99.90;;;;;;5129492;28;20023;-82
2021/11/17 09:13:34;;;;;;;0.10;0.10;;;7.30;99.90;;;;;;5129293;28;20063;-79
2021/11/17 09:16:01;;;;;;;0.10;0.10;;;7.20;99.90;;;;;;5129048;28;20040;-79
2021/11/17 09:18:32;;;;;;;0.10;0.10;;;7.30;99.90;;;;;;5131289;28;20071;-81
2021/11/17 09:21:00;;;;;;;0.10;0.10;;;7.30;99.90;;;;;;5133141;28;20120;-82
2021/11/17 09:23:29;;;;;;;0.00;0.00;;;7.30;99.90;;;;;;5116593;28;20038;-81
2021/11/17 09:25:59;;;;;;;0.10;0.10;;;7.30;99.90;;;;;;5115071;28;20381;-79
2021/11/17 09:28:28;;;;;;;0.00;0.00;;;7.40;99.90;;;;;;5130273;28;20048;-80
2021/11/17 09:30:56;;;;;;;0.10;0.10;;;7.40;99.90;;;;;;5130585;28;20036;-82
2021/11/17 09:33:24;;;;;;;0.00;0.00;;;7.40;99.90;;;;;;5095938;28;20503;-83
2021/11/17 09:35:52;;;;;;;0.10;0.10;;;7.50;99.90;;;;;;5129599;28;20048;-83
2021/11/17 09:38:19;;;;;;;0.75;0.50;;;7.50;99.90;;;;;;5112382;28;20488;-83
2021/11/17 09:40:52;;;;;;;0.10;0.10;;;7.50;99.90;;;;;;5079108;28;20525;-82
2021/11/17 09:43:26;;;;;;;0.00;0.00;;;7.60;99.90;;;;;;5129670;28;20127;-84
2021/11/17 09:45:54;;;;;;;0.20;0.20;;;7.60;99.90;;;;;;5112150;28;20044;-82
2021/11/17 09:48:26;;;;;;;0.70;0.55;;;7.60;99.90;;;;;;5112716;28;20040;-82
2021/11/17 09:51:19;;;;;;;0.10;0.10;;;7.60;99.90;;;;;;5111931;28;20051;-84
2021/11/17 09:54:10;;;;;;;0.10;0.10;;;7.70;99.90;;;;;;5126510;28;20126;-82
2021/11/17 09:56:51;;;;;;;0.03;0.03;;;7.70;99.90;;;;;;5112172;28;20035;-82
2021/11/17 09:59:29;;;;;;;0.03;0.03;;;7.70;99.90;;;;;;5112088;28;20123;-83
2021/11/17 10:02:01;;;;;;;0.00;0.00;;;7.70;99.90;;;;;;5111583;28;20051;-82
2021/11/17 10:04:39;;;;;;;0.10;0.10;;;7.70;99.90;;;;;;5129924;28;20409;-81
2021/11/17 10:13:18;;;;;;;0.10;0.10;;;7.70;99.90;;;;;;5149041;28;20047;-81
2021/11/17 10:15:51;;;;;;;0.10;0.10;;;7.80;99.90;;;;;;5132446;28;20043;-83
2021/11/17 10:18:20;;;;;;;0.65;0.65;;;7.80;99.90;;;;;;5148856;28;20132;-82
2021/11/17 10:20:47;;;;;;;0.00;0.00;;;7.80;99.90;;;;;;5132462;28;20037;-83
2021/11/17 10:23:24;;;;;;;0.10;0.10;;;7.90;99.90;;;;;;5131763;28;20403;-81
2021/11/17 10:25:53;;;;;;;0.10;0.10;;;7.90;99.90;;;;;;5132135;28;20070;-82
2021/11/17 10:28:52;;;;;;;0.20;0.20;;;7.90;99.90;;;;;;5131957;28;20391;-83
2021/11/17 10:31:47;;;;;;;0.30;0.30;;;8.00;99.90;;;;;;5140405;28;20408;-82
2021/11/17 10:34:22;;;;;;;0.40;0.40;;;8.00;99.90;;;;;;5131609;28;20712;-82
2021/11/17 10:37:00;;;;;;;0.00;0.00;;;8.10;99.90;;;;;;5132116;28;20035;-83
2021/11/17 10:39:39;;;;;;;0.10;0.10;;;8.10;99.90;;;;;;5133452;28;20556;-83
2021/11/17 10:42:11;;;;;;;0.00;0.00;;;8.10;99.90;;;;;;5131336;28;20035;-82
2021/11/17 10:45:07;;;;;;;0.00;0.00;;;8.10;99.90;;;;;;5131478;28;20044;-81
2021/11/17 10:47:45;;;;;;;0.10;0.10;;;8.10;99.90;;;;;;5131565;28;20475;-83
2021/11/17 10:50:29;;;;;;;0.00;0.00;;;8.20;99.90;;;;;;5131767;28;20039;-82
2021/11/17 10:53:24;;;;;;;0.00;0.00;;;8.30;99.90;;;;;;5131699;28;20043;-82
2021/11/17 10:55:55;;;;;;;0.10;0.10;;;8.40;99.90;;;;;;5131681;28;20535;-82
2021/11/17 10:58:24;;;;;;;0.00;0.00;;;8.40;99.90;;;;;;5131716;28;20040;-83
2021/11/17 11:01:02;;;;;;;0.00;0.00;;;8.50;99.90;;;;;;5131290;28;20039;-82
2021/11/17 11:03:36;;;;;;;0.10;0.10;;;8.50;99.90;;;;;;5131325;28;20115;-82
2021/11/17 11:06:20;;;;;;;0.10;0.10;;;8.60;99.90;;;;;;5130975;28;20572;-81
2021/11/17 11:09:03;;;;;;;0.08;0.08;;;8.60;99.90;;;;;;5131353;28;20035;-82
2021/11/17 11:11:34;;;;;;;0.05;0.05;;;8.70;99.90;;;;;;5131736;28;20036;-82
2021/11/17 11:14:19;;;;;;;0.00;0.00;;;8.80;99.90;;;;;;5148517;28;20424;-82
2021/11/17 11:16:50;;;;;;;0.10;0.10;;;8.80;99.90;;;;;;5131432;28;20132;-82
2021/11/17 11:19:19;;;;;;;0.00;0.00;;;8.80;99.90;;;;;;5130998;28;20793;-81
2021/11/17 11:21:46;;;;;;;0.93;0.38;;;8.90;99.90;;;;;;5131483;28;20043;-82
2021/11/17 11:24:34;;;;;;;0.15;0.08;;;8.80;99.90;;;;;;5130972;28;20136;-80
2021/11/17 11:27:00;;;;;;;0.08;0.08;;;8.90;99.90;;;;;;5131439;28;20047;-82
2021/11/17 11:29:30;;;;;;;0.10;0.10;;;8.90;99.90;;;;;;5147493;28;20487;-81
2021/11/17 11:31:59;;;;;;;0.10;0.10;;;9.00;99.90;;;;;;5130654;28;20499;-82
2021/11/17 11:34:34;;;;;;;0.03;0.03;;;9.10;99.90;;;;;;5130670;28;20043;-82
2021/11/17 11:37:04;;;;;;;0.20;0.20;;;9.10;99.90;;;;;;5148150;28;20050;-81
2021/11/17 11:39:46;;;;;;;0.00;0.00;;;9.10;99.90;;;;;;5148202;28;20130;-82
2021/11/17 11:42:25;;;;;;;0.00;0.00;;;9.10;99.90;;;;;;5146506;28;20043;-82
2021/11/17 11:45:27;;;;;;;0.00;0.00;;;9.20;99.90;;;;;;5131380;28;20043;-82
2021/11/17 11:48:25;;;;;;;0.00;0.00;;;9.20;99.90;;;;;;5128808;28;20116;-82
2021/11/17 11:51:05;;;;;;;0.10;0.10;;;9.30;99.90;;;;;;5113784;28;20048;-81
2021/11/17 11:54:09;;;;;;;0.05;0.05;;;9.30;99.90;;;;;;5130022;28;20046;-80
2021/11/17 11:56:47;;;;;;;0.00;0.00;;;9.40;99.90;;;;;;5109026;28;20079;-81
2021/11/17 11:59:22;;;;;;;0.10;0.10;;;9.40;99.90;;;;;;5146941;28;20039;-81
2021/11/17 12:01:49;;;;;;;0.03;0.03;;;9.50;99.90;;;;;;5129911;28;20490;-82
2021/11/17 12:04:25;;;;;;;0.30;0.30;;;9.50;99.90;;;;;;5112833;28;20122;-82
2021/11/17 12:07:06;;;;;;;;;;;9.60;99.90;;;;;;5147566;28;20518;-82
2021/11/17 12:09:38;;;;;;;0.05;0.05;;;9.60;99.90;;;;;;5130193;28;19922;-82
2021/11/17 12:12:21;;;;;;;0.10;0.10;;;9.70;99.90;;;;;;5130213;28;20112;-81
2021/11/17 12:15:10;;;;;;;0.00;0.00;;;9.70;99.90;;;;;;5147220;28;20129;-82
2021/11/17 12:17:36;;;;;;;0.10;0.10;;;9.70;99.90;;;;;;5129836;28;20092;-81
2021/11/17 12:20:25;;;;;;;0.00;0.00;;;9.80;99.90;;;;;;5129830;28;20082;-82
2021/11/17 12:22:54;;;;;;;0.00;0.00;;;9.80;99.90;;;;;;5146777;28;20399;-82
2021/11/17 12:25:30;;;;;;;0.00;0.00;;;9.70;99.90;;;;;;5129386;28;20051;-81
2021/11/17 12:28:08;;;;;;;0.00;0.00;;;9.80;99.90;;;;;;5129954;28;20042;-82
2021/11/17 12:31:01;;;;;;;0.00;0.00;;;9.80;99.90;;;;;;5129238;28;20771;-82
2021/11/17 12:33:36;;;;;;;0.00;0.00;;;9.90;99.90;;;;;;5129432;28;20040;-82
2021/11/17 12:36:21;;;;;;;0.10;0.10;;;9.90;99.90;;;;;;5129889;28;20043;-82
2021/11/17 12:38:48;;;;;;;0.00;0.00;;;9.80;99.90;;;;;;5129988;28;20043;-82
2021/11/17 12:41:18;;;;;;;0.03;0.03;;;9.80;99.90;;;;;;5129658;28;20047;-82
2021/11/17 12:44:04;;;;;;;0.08;0.08;;;9.80;99.90;;;;;;5129267;28;20400;-82
2021/11/17 12:46:43;;;;;;;0.00;0.00;;;9.80;99.90;;;;;;5129339;28;20093;-82
2021/11/17 12:49:24;;;;;;;0.10;0.10;;;9.90;99.90;;;;;;5129716;28;20042;-81
2021/11/17 12:52:09;;;;;;;0.00;0.00;;;9.80;99.90;;;;;;5129897;28;20127;-81
2021/11/17 12:55:10;;;;;;;0.00;0.00;;;9.90;99.90;;;;;;5133306;28;20044;-82
2021/11/17 12:58:06;;;;;;;0.00;0.00;;;9.90;99.90;;;;;;5124432;28;20554;-82
2021/11/17 13:00:45;;;;;;;0.00;0.00;;;10.00;99.90;;;;;;5133794;28;20077;-82
2021/11/17 13:03:24;;;;;;;0.00;0.00;;;10.00;99.90;;;;;;5150497;28;20047;-82
2021/11/17 13:06:08;;;;;;;0.00;0.00;;;10.10;99.90;;;;;;5133612;28;20039;-82
2021/11/17 13:08:37;;;;;;;0.10;0.10;;;10.00;99.90;;;;;;5133518;28;20036;-83
2021/11/17 13:11:10;;;;;;;0.08;0.08;;;10.10;99.90;;;;;;5133691;28;20663;-82
2021/11/17 13:13:40;;;;;;;0.38;0.15;;;10.10;99.90;;;;;;5133439;28;20624;-82
2021/11/17 13:16:38;;;;;;;0.00;0.00;;;10.10;99.90;;;;;;5133637;28;20120;-82
2021/11/17 13:19:22;;;;;;;0.00;0.00;;;10.10;99.90;;;;;;5148679;28;20086;-83
2021/11/17 13:21:58;;;;;;;0.00;0.00;;;10.00;99.90;;;;;;5133304;28;20097;-82
2021/11/17 13:24:39;;;;;;;0.00;0.00;;;10.10;99.90;;;;;;5132861;28;20399;-82
2021/11/17 13:27:08;;;;;;;0.10;0.10;;;10.00;99.90;;;;;;5133509;28;20032;-82
2021/11/17 13:30:11;;;;;;;0.00;0.00;;;10.00;99.90;;;;;;5132907;28;20035;-82
2021/11/17 13:32:42;;;;;;;0.00;0.00;;;10.00;99.90;;;;;;5132875;28;20040;-81
2021/11/17 13:35:26;;;;;;;0.00;0.00;;;10.00;99.90;;;;;;5133639;28;20050;-81
2021/11/17 13:38:11;;;;;;;0.10;0.10;;;10.10;99.90;;;;;;5150256;28;20074;-82
2021/11/17 13:40:39;;;;;;;0.00;0.00;;;10.10;99.90;;;;;;5132698;28;20047;-82
2021/11/17 13:43:07;;;;;;;0.10;0.10;;;10.10;99.90;;;;;;5116203;28;20185;-82
2021/11/17 13:45:34;;;;;;;0.00;0.00;;;10.10;99.90;;;;;;5133296;28;20083;-81
2021/11/17 13:48:02;;;;;;;0.00;0.00;;;10.00;99.90;;;;;;5133807;28;20090;-81
2021/11/17 13:50:34;;;;;;;0.00;0.00;;;10.00;99.90;;;;;;5116095;28;20035;-82
2021/11/17 13:53:05;;;;;;;0.00;0.00;;;10.00;99.90;;;;;;5133066;28;20081;-82
2021/11/17 13:55:37;;;;;;;0.00;0.00;;;9.90;99.90;;;;;;5132688;28;20119;-82
2021/11/17 13:58:05;;;;;;;0.08;0.08;;;9.90;99.90;;;;;;5149815;28;20040;-82
2021/11/17 14:00:33;;;;;;;0.00;0.00;;;9.90;99.90;;;;;;5132375;28;20107;-82
2021/11/17 14:03:00;;;;;;;0.00;0.00;;;9.90;99.90;;;;;;5098973;28;20043;-82
2021/11/17 14:05:27;;;;;;;0.00;0.00;;;9.80;99.90;;;;;;5130972;28;20048;-82
2021/11/17 14:07:54;;;;;;;0.00;0.00;;;9.70;99.90;;;;;;5132415;28;20160;-82
2021/11/17 14:10:22;;;;;;;0.00;0.00;;;9.70;99.90;;;;;;5115792;28;20130;-82
2021/11/17 14:12:51;;;;;;;0.00;0.00;;;9.70;99.90;;;;;;5148824;28;20377;-82
2021/11/17 14:15:19;;;;;;;0.00;0.00;;;9.70;99.90;;;;;;5115678;28;20044;-82
2021/11/17 14:17:47;;;;;;;0.05;0.05;;;9.80;99.90;;;;;;5131966;28;20066;-83
2021/11/17 14:20:15;;;;;;;0.00;0.00;;;9.80;99.90;;;;;;5115539;28;20043;-82
2021/11/17 14:22:41;;;;;;;0.10;0.10;;;9.80;99.90;;;;;;5114695;28;20079;-82
2021/11/17 14:25:12;;;;;;;0.00;0.00;;;9.70;99.90;;;;;;5098488;28;20078;-82
2021/11/17 14:27:40;;;;;;;0.00;0.00;;;9.60;99.90;;;;;;5132795;28;20077;-81
2021/11/17 14:30:31;;;;;;;0.00;0.00;;;9.50;99.90;;;;;;5148831;28;20047;-82
2021/11/17 14:32:58;;;;;;;0.00;0.00;;;9.50;99.90;;;;;;5148949;28;20040;-82
2021/11/17 14:35:27;;;;;;;1.55;1.25;;;9.40;99.90;;;;;;5114821;28;20039;-82
2021/11/17 14:37:55;;;;;;;0.08;0.08;;;9.30;99.90;;;;;;5131505;28;20043;-82
2021/11/17 14:40:24;;;;;;;0.00;0.00;;;9.30;99.90;;;;;;5131541;28;20845;-82
2021/11/17 14:42:51;;;;;;;0.08;0.08;;;9.40;99.90;;;;;;5131312;28;20047;-82
2021/11/17 14:45:22;;;;;;;0.10;0.10;;;9.30;99.90;;;;;;5131664;28;20044;-82
2021/11/17 14:47:49;;;;;;;0.10;0.10;;;9.30;99.90;;;;;;5131340;28;20135;-82
2021/11/17 14:50:18;;;;;;;0.10;0.10;;;9.40;99.90;;;;;;5098325;28;20122;-82
2021/11/17 14:52:47;;;;;;;0.00;0.00;;;9.50;99.90;;;;;;5148147;28;20043;-82
2021/11/17 14:55:20;;;;;;;0.00;0.00;;;9.50;99.90;;;;;;5098391;28;20084;-82
2021/11/17 14:57:47;;;;;;;0.03;0.03;;;9.50;99.90;;;;;;5131387;28;20040;-82
2021/11/17 15:00:21;;;;;;;0.00;0.00;;;9.40;99.90;;;;;;5115005;28;20050;-82
2021/11/17 15:02:48;;;;;;;0.00;0.00;;;9.30;99.90;;;;;;5131269;28;20043;-83
2021/11/17 15:05:15;;;;;;;0.00;0.00;;;9.20;99.90;;;;;;5114344;28;20056;-82
2021/11/17 15:07:42;;;;;;;0.10;0.10;;;9.10;99.90;;;;;;5114552;28;20122;-82
2021/11/17 15:10:12;;;;;;;0.10;0.10;;;9.00;99.90;;;;;;5131574;28;20050;-82
2021/11/17 15:12:40;;;;;;;0.10;0.10;;;8.90;99.90;;;;;;5130810;28;20082;-82
2021/11/17 15:15:17;;;;;;;0.00;0.00;;;8.80;99.90;;;;;;5131343;28;20043;-82
2021/11/17 15:17:45;;;;;;;0.00;0.00;;;8.70;99.90;;;;;;5131307;28;20047;-82
2021/11/17 15:20:12;;;;;;;0.00;0.00;;;8.60;99.90;;;;;;5147836;28;20126;-82
2021/11/17 15:22:41;;;;;;;0.00;0.00;;;8.60;99.90;;;;;;5113693;28;20484;-83
2021/11/17 15:25:11;;;;;;;0.00;0.00;;;8.50;99.90;;;;;;5131031;28;20502;-83
2021/11/17 15:27:48;;;;;;;0.00;0.00;;;8.30;99.90;;;;;;5130762;28;20046;-83
2021/11/17 15:30:20;;;;;;;0.00;0.00;;;8.30;99.90;;;;;;5130706;28;20115;-83
2021/11/17 15:32:48;;;;;;;0.00;0.00;;;8.30;99.90;;;;;;5130069;28;20404;-82
2021/11/17 15:35:16;;;;;;;0.10;0.10;;;8.20;99.90;;;;;;5113868;28;20075;-80
2021/11/17 15:37:47;;;;;;;0.00;0.00;;;8.20;99.90;;;;;;5113617;28;20130;-81
2021/11/17 15:40:16;;;;;;;0.10;0.10;;;8.10;99.90;;;;;;5113386;28;20652;-82
2021/11/17 15:42:44;;;;;;;0.00;0.00;;;8.00;99.90;;;;;;5113058;28;20397;-81
2021/11/17 15:45:11;;;;;;;0.00;0.00;;;8.00;99.90;;;;;;5113045;28;20143;-82
2021/11/17 15:47:39;;;;;;;0.00;0.00;;;7.90;99.90;;;;;;5113251;28;20118;-82
2021/11/17 15:50:09;;;;;;;0.10;0.10;;;7.80;99.90;;;;;;5147292;28;20088;-82
2021/11/17 15:52:35;;;;;;;0.00;0.00;;;7.80;99.90;;;;;;5112988;28;20039;-83
2021/11/17 15:55:03;;;;;;;0.00;0.00;;;7.80;99.90;;;;;;5096850;28;20164;-83
2021/11/17 15:57:30;;;;;;;0.10;0.10;;;7.70;99.90;;;;;;5138111;28;20453;-82
2021/11/17 15:59:57;;;;;;;0.10;0.10;;;7.70;99.90;;;;;;5096424;28;20043;-83
2021/11/17 16:02:24;;;;;;;0.13;0.13;;;7.60;99.90;;;;;;5113402;28;20043;-83
2021/11/17 16:04:51;;;;;;;0.00;0.00;;;7.60;99.90;;;;;;5096150;28;20051;-82
2021/11/17 16:07:19;;;;;;;0.10;0.10;;;7.60;99.90;;;;;;5096738;28;20521;-83
2021/11/17 16:09:51;;;;;;;0.00;0.00;;;7.80;99.90;;;;;;5129870;28;20039;-82
2021/11/17 16:12:19;;;;;;;0.10;0.10;;;7.40;99.90;;;;;;5130004;28;20035;-82
2021/11/17 16:14:46;;;;;;;0.10;0.10;;;7.40;99.90;;;;;;5129658;28;20095;-81
2021/11/17 16:17:13;;;;;;;0.10;0.10;;;7.40;99.90;;;;;;5129928;28;20122;-82